createdAt,value
2022-09-06T00:02:09.571Z,1.73
2022-09-06T00:04:37.336Z,1.60
2022-09-06T00:07:05.575Z,1.37
2022-09-06T00:09:33.283Z,1.50
2022-09-06T00:12:02.351Z,1.60
2022-09-06T00:14:30.057Z,1.63
2022-09-06T00:16:57.937Z,1.40
2022-09-06T00:19:25.799Z,1.40
2022-09-06T00:21:53.452Z,1.40
2022-09-06T00:24:21.165Z,1.30
2022-09-06T00:26:48.910Z,1.30
2022-09-06T00:29:17.964Z,1.27
2022-09-06T00:31:45.738Z,1.20
2022-09-06T00:34:13.433Z,1.47
2022-09-06T00:36:41.072Z,1.30
2022-09-06T00:39:08.905Z,1.30
2022-09-06T00:41:36.584Z,1.40
2022-09-06T00:44:04.692Z,1.63
2022-09-06T00:46:34.734Z,1.40
2022-09-06T00:49:06.353Z,1.43
2022-09-06T00:51:36.446Z,1.80
2022-09-06T00:54:06.331Z,1.67
2022-09-06T00:56:36.402Z,1.60
2022-09-06T00:59:05.208Z,1.50
2022-09-06T01:01:34.420Z,1.53
2022-09-06T01:04:04.182Z,1.50
2022-09-06T01:06:43.642Z,1.60
2022-09-06T01:09:21.397Z,1.53
2022-09-06T01:11:59.881Z,1.40
2022-09-06T01:14:41.688Z,1.40
2022-09-06T01:17:20.807Z,1.40
2022-09-06T01:20:21.332Z,1.30
2022-09-06T01:23:16.827Z,1.33
2022-09-06T01:25:56.700Z,1.37
2022-09-06T01:28:32.231Z,1.20
2022-09-06T01:31:08.980Z,1.20
2022-09-06T01:33:42.345Z,1.37
2022-09-06T01:36:15.827Z,1.57
2022-09-06T01:38:43.659Z,1.17
2022-09-06T01:41:12.188Z,1.20
2022-09-06T01:43:46.107Z,1.27
2022-09-06T01:46:20.926Z,1.40
2022-09-06T01:49:04.951Z,1.07
2022-09-06T01:51:40.827Z,1.20
2022-09-06T01:54:24.983Z,1.20
2022-09-06T01:57:08.933Z,1.30
2022-09-06T01:59:51.746Z,1.40
2022-09-06T02:02:26.221Z,1.50
2022-09-06T02:05:02.428Z,1.30
2022-09-06T02:07:33.582Z,1.60
2022-09-06T02:10:08.024Z,1.30
2022-09-06T02:12:40.328Z,1.30
2022-09-06T02:15:12.518Z,1.37
2022-09-06T02:17:46.451Z,1.40
2022-09-06T02:20:18.437Z,1.30
2022-09-06T02:22:49.163Z,1.30
2022-09-06T02:25:24.809Z,1.57
2022-09-06T02:27:53.328Z,1.20
2022-09-06T02:30:22.595Z,1.30
2022-09-06T02:32:57.115Z,1.20
2022-09-06T02:35:25.354Z,1.37
2022-09-06T02:37:53.250Z,1.23
2022-09-06T02:40:21.571Z,1.40
2022-09-06T02:42:49.590Z,1.43
2022-09-06T02:45:17.441Z,1.33
2022-09-06T02:47:46.511Z,1.70
2022-09-06T02:50:15.403Z,1.30
2022-09-06T02:52:43.218Z,1.40
2022-09-06T02:55:11.276Z,1.60
2022-09-06T02:57:39.553Z,1.80
2022-09-06T03:00:08.449Z,1.33
2022-09-06T03:02:36.311Z,1.40
2022-09-06T03:05:06.059Z,1.27
2022-09-06T03:07:33.786Z,1.27
2022-09-06T03:10:01.759Z,1.30
2022-09-06T03:12:29.702Z,1.40
2022-09-06T03:14:57.886Z,1.33
2022-09-06T03:17:25.962Z,1.63
2022-09-06T03:19:53.713Z,1.40
2022-09-06T03:22:22.692Z,1.30
2022-09-06T03:24:50.396Z,1.40
2022-09-06T03:27:18.172Z,1.37
2022-09-06T03:29:45.834Z,1.27
2022-09-06T03:32:13.455Z,1.70
2022-09-06T03:34:41.130Z,1.50
2022-09-06T03:37:08.907Z,1.70
2022-09-06T03:39:38.024Z,1.60
2022-09-06T03:42:05.832Z,1.87
2022-09-06T03:44:34.033Z,1.50
2022-09-06T03:47:01.682Z,1.50
2022-09-06T03:49:29.325Z,1.23
2022-09-06T03:51:57.205Z,1.47
2022-09-06T03:54:25.572Z,1.50
2022-09-06T03:56:54.625Z,1.60
2022-09-06T03:59:22.254Z,1.43
2022-09-06T04:01:49.872Z,1.60
2022-09-06T04:04:17.496Z,1.70
2022-09-06T04:06:45.139Z,1.60
2022-09-06T04:09:12.835Z,1.40
2022-09-06T04:11:42.917Z,1.43
2022-09-06T04:14:13.805Z,1.50
2022-09-06T04:16:41.524Z,1.20
2022-09-06T04:19:09.286Z,1.50
2022-09-06T04:21:36.924Z,1.43
2022-09-06T04:24:04.547Z,1.40
2022-09-06T04:26:32.191Z,1.30
2022-09-06T04:28:59.822Z,1.30
2022-09-06T04:31:29.167Z,1.40
2022-09-06T04:33:56.818Z,1.47
2022-09-06T04:36:24.455Z,1.37
2022-09-06T04:38:52.266Z,1.37
2022-09-06T04:41:19.891Z,1.20
2022-09-06T04:43:47.759Z,1.37
2022-09-06T04:46:23.103Z,1.50
2022-09-06T04:48:53.051Z,1.27
2022-09-06T04:51:21.459Z,1.20
2022-09-06T04:53:49.532Z,1.33
2022-09-06T04:56:19.369Z,1.30
2022-09-06T04:58:48.717Z,1.50
2022-09-06T05:01:17.274Z,1.37
2022-09-06T05:03:45.030Z,1.47
2022-09-06T05:06:19.247Z,1.50
2022-09-06T05:08:46.885Z,1.37
2022-09-06T05:11:14.839Z,1.30
2022-09-06T05:13:42.569Z,1.50
2022-09-06T05:16:10.655Z,1.50
2022-09-06T05:18:38.451Z,1.30
2022-09-06T05:21:07.619Z,1.30
2022-09-06T05:23:36.973Z,1.10
2022-09-06T05:26:05.097Z,1.30
2022-09-06T05:28:32.758Z,1.30
2022-09-06T05:31:10.719Z,1.20
2022-09-06T05:33:38.407Z,1.17
2022-09-06T05:36:07.343Z,1.37
2022-09-06T05:38:36.338Z,1.30
2022-09-06T05:41:03.964Z,1.23
2022-09-06T05:43:31.929Z,1.03
2022-09-06T05:46:00.124Z,1.27
2022-09-06T05:48:28.000Z,1.27
2022-09-06T05:51:02.656Z,1.30
2022-09-06T05:53:36.456Z,1.10
2022-09-06T05:56:05.393Z,1.30
2022-09-06T05:58:33.235Z,1.20
2022-09-06T06:01:08.948Z,1.10
2022-09-06T06:03:36.602Z,1.10
2022-09-06T06:06:04.260Z,1.37
2022-09-06T06:08:31.908Z,1.17
2022-09-06T06:11:01.420Z,1.10
2022-09-06T06:13:31.729Z,1.00
2022-09-06T06:15:59.658Z,1.10
2022-09-06T06:18:27.337Z,1.10
2022-09-06T06:21:08.501Z,0.90
2022-09-06T06:23:36.211Z,1.40
2022-09-06T06:26:05.421Z,1.33
2022-09-06T06:28:33.389Z,1.20
2022-09-06T06:31:01.033Z,1.20
2022-09-06T06:33:29.078Z,1.10
2022-09-06T06:36:01.321Z,1.20
2022-09-06T06:38:32.796Z,1.20
2022-09-06T06:41:05.849Z,1.17
2022-09-06T06:43:37.870Z,1.10
2022-09-06T06:46:06.644Z,1.23
2022-09-06T06:48:34.382Z,0.90
2022-09-06T06:51:02.286Z,1.10
2022-09-06T06:53:30.161Z,1.20
2022-09-06T06:55:57.790Z,1.20
2022-09-06T06:58:25.774Z,1.23
2022-09-06T07:00:54.867Z,1.30
2022-09-06T07:03:22.544Z,1.10
2022-09-06T07:08:38.276Z,1.80
2022-09-06T07:11:07.426Z,1.57
2022-09-06T07:13:35.212Z,2.40
2022-09-06T07:16:13.311Z,2.37
2022-09-06T07:18:42.264Z,1.93
2022-09-06T07:24:07.012Z,2.03
2022-09-06T07:26:36.620Z,1.93
2022-09-06T07:29:06.143Z,2.03
2022-09-06T07:34:25.195Z,1.93
2022-09-06T07:36:53.335Z,1.70
2022-09-06T07:39:21.102Z,1.67
2022-09-06T07:41:48.895Z,2.00
2022-09-06T07:44:16.648Z,2.03
2022-09-06T07:46:45.822Z,1.97
2022-09-06T07:49:13.612Z,2.10
2022-09-06T07:51:41.241Z,1.90
2022-09-06T07:56:56.474Z,1.70
2022-09-06T07:59:24.090Z,1.53
2022-09-06T08:01:53.324Z,1.70
2022-09-06T08:04:21.017Z,1.87
2022-09-06T08:09:39.772Z,1.30
2022-09-06T08:12:08.224Z,1.40
2022-09-06T08:14:36.540Z,1.30
2022-09-06T08:17:05.560Z,1.67
2022-09-06T08:19:34.406Z,1.30
2022-09-06T08:22:02.039Z,1.67
2022-09-06T08:24:29.692Z,1.80
2022-09-06T08:26:57.306Z,2.63
2022-09-06T08:29:25.972Z,2.13
2022-09-06T08:31:53.899Z,1.83
2022-09-06T08:34:22.931Z,1.90
2022-09-06T08:36:50.585Z,1.90
2022-09-06T08:39:18.630Z,1.93
2022-09-06T08:41:51.325Z,1.90
2022-09-06T08:47:12.543Z,2.43
2022-09-06T08:49:44.997Z,2.13
2022-09-06T08:52:35.264Z,2.33
2022-09-06T08:55:22.659Z,2.10
2022-09-06T08:58:02.145Z,2.00
2022-09-06T09:00:30.697Z,1.60
2022-09-06T09:03:12.051Z,1.80
2022-09-06T09:05:49.045Z,1.63
2022-09-06T09:08:26.558Z,1.40
2022-09-06T09:10:58.895Z,1.80
2022-09-06T09:13:30.258Z,1.70
2022-09-06T09:15:58.091Z,1.70
2022-09-06T09:18:30.490Z,1.60
2022-09-06T09:21:00.416Z,1.50
2022-09-06T09:23:29.987Z,1.83
2022-09-06T09:26:03.365Z,1.50
2022-09-06T09:28:31.245Z,1.80
2022-09-06T09:31:00.045Z,1.60
2022-09-06T09:33:36.935Z,2.10
2022-09-06T09:36:10.902Z,2.00
2022-09-06T09:38:44.340Z,1.80
2022-09-06T09:41:28.600Z,2.20
2022-09-06T09:44:04.178Z,2.10
2022-09-06T09:46:34.489Z,1.73
2022-09-06T09:49:08.595Z,2.20
2022-09-06T09:51:39.388Z,1.77
2022-09-06T09:54:09.036Z,1.60
2022-09-06T09:56:48.288Z,1.80
2022-09-06T09:59:25.226Z,1.90
2022-09-06T10:01:56.338Z,2.70
2022-09-06T10:04:46.975Z,2.73
2022-09-06T10:07:20.553Z,2.50
2022-09-06T10:09:49.842Z,2.33
2022-09-06T10:12:20.001Z,2.20
2022-09-06T10:14:49.770Z,2.10
2022-09-06T10:17:28.819Z,2.20
2022-09-06T10:19:57.301Z,1.97
2022-09-06T10:22:31.736Z,2.05
2022-09-06T10:25:32.279Z,2.30
2022-09-06T10:28:29.241Z,2.20
2022-09-06T10:31:20.106Z,2.30
2022-09-06T10:34:03.499Z,2.10
2022-09-06T10:36:35.998Z,2.40
2022-09-06T10:39:18.706Z,2.00
2022-09-06T10:41:59.661Z,2.20
2022-09-06T10:44:50.041Z,2.28
2022-09-06T10:47:19.179Z,2.05
2022-09-06T10:49:54.341Z,2.10
2022-09-06T10:52:26.349Z,2.10
2022-09-06T10:55:02.184Z,2.33
2022-09-06T11:00:24.089Z,2.55
2022-09-06T11:05:49.866Z,2.70
2022-09-06T11:11:20.805Z,2.28
2022-09-06T11:13:48.606Z,2.40
2022-09-06T11:16:22.726Z,2.50
2022-09-06T11:18:56.452Z,2.40
2022-09-06T11:21:46.549Z,2.60
2022-09-06T11:24:16.380Z,2.40
2022-09-06T11:26:58.780Z,2.30
2022-09-06T11:29:28.824Z,2.60
2022-09-06T11:34:54.675Z,1.90
2022-09-06T11:37:28.693Z,1.90
2022-09-06T11:43:14.028Z,2.00
2022-09-06T11:45:48.583Z,1.80
2022-09-06T11:48:37.676Z,1.95
2022-09-06T11:51:10.873Z,2.20
2022-09-06T11:54:13.042Z,2.25
2022-09-06T11:56:43.839Z,2.20
2022-09-06T11:59:34.678Z,2.10
2022-09-06T12:02:04.331Z,2.67
2022-09-06T12:05:09.921Z,2.45
2022-09-06T12:07:40.015Z,2.35
2022-09-06T12:10:40.128Z,2.40
2022-09-06T12:13:48.530Z,2.95
2022-09-06T12:16:19.315Z,2.47
2022-09-06T12:19:04.005Z,2.47
2022-09-06T12:21:52.384Z,2.28
2022-09-06T12:24:56.823Z,2.13
2022-09-06T12:27:27.235Z,2.33
2022-09-06T12:29:59.384Z,2.40
2022-09-06T12:32:36.759Z,3.00
2022-09-06T12:37:57.836Z,2.70
2022-09-06T12:40:27.631Z,2.97
2022-09-06T12:42:56.337Z,3.30
2022-09-06T12:45:27.568Z,3.45
2022-09-06T12:48:09.674Z,3.45
2022-09-06T12:50:37.869Z,3.17
2022-09-06T12:53:23.130Z,3.50
2022-09-06T12:56:05.214Z,2.85
2022-09-06T12:58:33.472Z,2.65
2022-09-06T13:01:07.786Z,2.67
2022-09-06T13:03:40.824Z,3.15
2022-09-06T13:06:12.244Z,3.22
2022-09-06T13:08:45.544Z,3.00
2022-09-06T13:11:16.290Z,2.83
2022-09-06T13:13:49.307Z,3.30
2022-09-06T13:16:22.351Z,3.42
2022-09-06T13:18:51.919Z,2.85
2022-09-06T13:21:28.731Z,2.97
2022-09-06T13:23:59.081Z,3.28
2022-09-06T13:26:34.615Z,2.40
2022-09-06T13:29:13.315Z,2.92
2022-09-06T13:31:46.535Z,3.20
2022-09-06T13:34:23.298Z,3.13
2022-09-06T13:36:52.951Z,2.85
2022-09-06T13:39:34.841Z,3.10
2022-09-06T13:42:05.789Z,3.47
2022-09-06T13:44:36.212Z,3.13
2022-09-06T13:47:04.686Z,3.50
2022-09-06T13:49:34.500Z,3.70
2022-09-06T13:52:04.692Z,3.03
2022-09-06T13:54:34.776Z,3.80
2022-09-06T13:57:02.908Z,2.83
2022-09-06T13:59:31.579Z,2.90
2022-09-06T14:02:02.926Z,2.90
2022-09-06T14:04:32.445Z,3.00
2022-09-06T14:07:01.533Z,2.92
2022-09-06T14:09:29.588Z,3.25
2022-09-06T14:11:57.682Z,3.20
2022-09-06T14:14:25.673Z,2.83
2022-09-06T14:16:54.080Z,2.83
2022-09-06T14:19:21.841Z,2.80
2022-09-06T14:21:49.702Z,3.20
2022-09-06T14:24:19.060Z,3.33
2022-09-06T14:26:47.236Z,3.58
2022-09-06T14:29:15.176Z,3.05
2022-09-06T14:31:42.892Z,3.00
2022-09-06T14:34:10.964Z,2.90
2022-09-06T14:36:38.710Z,3.20
2022-09-06T14:39:06.548Z,2.97
2022-09-06T14:41:36.362Z,3.28
2022-09-06T14:44:04.804Z,3.03
2022-09-06T14:46:32.726Z,3.33
2022-09-06T14:49:02.302Z,2.60
2022-09-06T14:51:31.107Z,2.80
2022-09-06T14:54:02.356Z,3.28
2022-09-06T14:56:30.362Z,3.58
2022-09-06T14:59:00.426Z,3.40
2022-09-06T15:01:34.121Z,3.10
2022-09-06T15:04:05.078Z,3.40
2022-09-06T15:06:35.013Z,3.42
2022-09-06T15:09:02.814Z,3.78
2022-09-06T15:11:34.691Z,4.05
2022-09-06T15:14:05.604Z,3.30
2022-09-06T15:16:34.290Z,3.00
2022-09-06T15:19:02.772Z,2.58
2022-09-06T15:21:31.514Z,3.20
2022-09-06T15:23:59.861Z,3.38
2022-09-06T15:26:27.510Z,3.03
2022-09-06T15:28:55.463Z,2.95
2022-09-06T15:31:24.550Z,3.20
2022-09-06T15:33:52.861Z,3.25
2022-09-06T15:36:21.829Z,3.28
2022-09-06T15:38:50.850Z,3.00
2022-09-06T15:41:20.846Z,3.58
2022-09-06T15:43:50.621Z,3.40
2022-09-06T15:46:22.167Z,3.22
2022-09-06T15:48:53.717Z,2.70
2022-09-06T15:51:22.175Z,2.80
2022-09-06T15:53:49.857Z,2.72
2022-09-06T15:56:18.915Z,3.33
2022-09-06T15:58:47.681Z,3.05
2022-09-06T16:01:17.253Z,2.60
2022-09-06T16:03:46.814Z,3.65
2022-09-06T16:06:26.863Z,3.25
2022-09-06T16:08:59.369Z,3.63
2022-09-06T16:11:28.171Z,4.25
2022-09-06T16:13:56.238Z,3.40
2022-09-06T16:16:24.145Z,3.22
2022-09-06T16:18:53.132Z,3.03
2022-09-06T16:21:24.751Z,2.60
2022-09-06T16:23:54.001Z,3.80
2022-09-06T16:26:25.005Z,3.22
2022-09-06T16:28:53.581Z,3.55
2022-09-06T16:31:22.289Z,3.15
2022-09-06T16:33:50.653Z,2.55
2022-09-06T16:36:19.516Z,2.90
2022-09-06T16:38:49.518Z,3.15
2022-09-06T16:41:20.640Z,3.03
2022-09-06T16:43:50.053Z,3.33
2022-09-06T16:46:18.307Z,3.47
2022-09-06T16:48:52.108Z,3.15
2022-09-06T16:51:20.733Z,3.45
2022-09-06T16:53:50.866Z,3.45
2022-09-06T16:56:20.328Z,2.92
2022-09-06T16:58:51.484Z,2.90
2022-09-06T17:01:20.039Z,3.53
2022-09-06T17:03:48.249Z,3.30
2022-09-06T17:06:16.539Z,3.95
2022-09-06T17:08:44.861Z,3.60
2022-09-06T17:11:16.208Z,3.60
2022-09-06T17:13:44.933Z,3.30
2022-09-06T17:16:30.481Z,3.40
2022-09-06T17:19:01.132Z,3.28
2022-09-06T17:21:30.263Z,3.08
2022-09-06T17:23:58.648Z,2.50
2022-09-06T17:26:27.724Z,2.38
2022-09-06T17:28:56.919Z,2.45
2022-09-06T17:31:26.069Z,2.22
2022-09-06T17:33:54.184Z,1.98
2022-09-06T17:36:24.236Z,2.15
2022-09-06T17:38:54.170Z,2.00
2022-09-06T17:41:25.711Z,2.30
2022-09-06T17:43:55.391Z,2.80
2022-09-06T17:46:28.447Z,2.47
2022-09-06T17:48:57.053Z,2.40
2022-09-06T17:51:25.863Z,2.33
2022-09-06T17:53:53.960Z,2.17
2022-09-06T17:56:22.591Z,2.00
2022-09-06T17:58:56.111Z,2.08
2022-09-06T18:01:25.670Z,1.80
2022-09-06T18:03:53.658Z,2.17
2022-09-06T18:06:23.606Z,2.65
2022-09-06T18:08:53.044Z,2.40
2022-09-06T18:11:23.417Z,2.42
2022-09-06T18:13:58.492Z,2.53
2022-09-06T18:16:27.580Z,2.72
2022-09-06T18:18:57.454Z,1.80
2022-09-06T18:21:27.436Z,2.08
2022-09-06T18:23:55.775Z,2.03
2022-09-06T18:26:24.520Z,2.03
2022-09-06T18:28:53.387Z,1.88
2022-09-06T18:31:24.437Z,1.77
2022-09-06T18:33:52.720Z,1.60
2022-09-06T18:36:21.113Z,1.80
2022-09-06T18:38:48.775Z,1.65
2022-09-06T18:41:30.995Z,1.88
2022-09-06T18:44:00.703Z,1.90
2022-09-06T18:46:30.603Z,1.70
2022-09-06T18:48:58.357Z,1.70
2022-09-06T18:51:26.285Z,1.70
2022-09-06T18:53:54.220Z,1.60
2022-09-06T18:56:21.875Z,1.63
2022-09-06T18:58:49.695Z,1.70
2022-09-06T19:01:20.127Z,1.50
2022-09-06T19:03:49.194Z,1.50
2022-09-06T19:06:19.743Z,1.50
2022-09-06T19:08:48.550Z,1.30
2022-09-06T19:11:18.790Z,1.67
2022-09-06T19:13:47.990Z,1.67
2022-09-06T19:16:16.064Z,1.88
2022-09-06T19:18:43.841Z,1.80
2022-09-06T19:21:14.286Z,1.63
2022-09-06T19:23:44.073Z,1.92
2022-09-06T19:26:16.848Z,1.95
2022-09-06T19:28:49.627Z,1.77
2022-09-06T19:31:18.429Z,1.80
2022-09-06T19:33:48.007Z,1.85
2022-09-06T19:36:18.255Z,2.08
2022-09-06T19:39:03.011Z,2.00
2022-09-06T19:41:32.911Z,1.83
2022-09-06T19:44:01.679Z,2.37
2022-09-06T19:46:29.456Z,2.00
2022-09-06T19:48:57.283Z,2.27
2022-09-06T19:51:26.274Z,2.13
2022-09-06T19:53:57.535Z,2.50
2022-09-06T19:56:27.224Z,2.30
2022-09-06T19:58:56.429Z,2.40
2022-09-06T20:01:25.504Z,2.13
2022-09-06T20:03:54.001Z,2.00
2022-09-06T20:06:22.414Z,2.10
2022-09-06T20:08:53.324Z,2.30
2022-09-06T20:11:23.169Z,2.10
2022-09-06T20:13:51.128Z,2.17
2022-09-06T20:16:20.860Z,2.00
2022-09-06T20:18:49.350Z,1.93
2022-09-06T20:21:18.528Z,1.87
2022-09-06T20:23:51.580Z,1.90
2022-09-06T20:26:20.018Z,2.00
2022-09-06T20:28:48.843Z,1.93
2022-09-06T20:31:18.233Z,2.03
2022-09-06T20:33:49.715Z,2.40
2022-09-06T20:36:18.692Z,2.07
2022-09-06T20:38:47.741Z,2.50
2022-09-06T20:41:18.397Z,2.20
2022-09-06T20:43:46.824Z,2.50
2022-09-06T20:46:16.777Z,2.27
2022-09-06T20:48:46.001Z,2.27
2022-09-06T20:51:15.649Z,2.17
2022-09-06T20:53:43.374Z,2.20
2022-09-06T20:56:13.030Z,2.00
2022-09-06T20:58:42.781Z,2.10
2022-09-06T21:01:15.237Z,2.03
2022-09-06T21:03:43.669Z,1.97
2022-09-06T21:06:13.303Z,1.77
2022-09-06T21:08:43.107Z,2.07
2022-09-06T21:11:11.725Z,1.70
2022-09-06T21:13:40.493Z,1.90
2022-09-06T21:16:09.977Z,1.73
2022-09-06T21:18:37.809Z,2.20
2022-09-06T21:21:07.844Z,2.07
2022-09-06T21:23:36.897Z,2.60
2022-09-06T21:26:06.571Z,2.53
2022-09-06T21:28:36.606Z,2.77
2022-09-06T21:31:08.135Z,2.40
2022-09-06T21:33:40.446Z,2.60
2022-09-06T21:36:09.721Z,2.47
2022-09-06T21:38:39.314Z,2.57
2022-09-06T21:41:08.540Z,2.60
2022-09-06T21:43:36.573Z,2.20
2022-09-06T21:46:04.959Z,2.43
2022-09-06T21:48:32.675Z,2.23
2022-09-06T21:51:01.641Z,2.23
2022-09-06T21:53:29.276Z,2.40
2022-09-06T21:56:00.434Z,2.20
2022-09-06T21:58:28.449Z,2.37
2022-09-06T22:00:59.192Z,2.70
2022-09-06T22:03:27.345Z,2.90
2022-09-06T22:05:55.680Z,2.70
2022-09-06T22:08:25.509Z,2.30
2022-09-06T22:10:53.242Z,2.93
2022-09-06T22:13:21.886Z,2.47
2022-09-06T22:15:49.566Z,2.53
2022-09-06T22:18:17.204Z,2.57
2022-09-06T22:20:44.862Z,2.57
2022-09-06T22:23:12.471Z,3.00
2022-09-06T22:25:42.905Z,2.93
2022-09-06T22:28:10.774Z,3.20
2022-09-06T22:30:39.267Z,3.00
2022-09-06T22:33:06.871Z,2.97
2022-09-06T22:35:34.869Z,3.10
2022-09-06T22:38:02.625Z,3.10
2022-09-06T22:40:30.257Z,3.57
2022-09-06T22:42:59.209Z,3.47
2022-09-06T22:45:26.873Z,3.80
2022-09-06T22:47:54.912Z,3.90
2022-09-06T22:50:22.578Z,3.60
2022-09-06T22:52:50.192Z,3.10
2022-09-06T22:55:18.257Z,3.43
2022-09-06T22:57:45.892Z,3.23
2022-09-06T23:00:15.853Z,3.33
2022-09-06T23:02:43.607Z,3.00
2022-09-06T23:05:11.246Z,3.37
2022-09-06T23:07:38.900Z,3.17
2022-09-06T23:10:07.523Z,3.03
2022-09-06T23:12:35.141Z,3.23
2022-09-06T23:15:02.844Z,2.80
2022-09-06T23:17:31.814Z,2.80
2022-09-06T23:19:59.989Z,3.00
2022-09-06T23:22:27.764Z,2.93
2022-09-06T23:24:55.397Z,2.60
2022-09-06T23:27:23.021Z,2.50
2022-09-06T23:29:50.797Z,3.10
2022-09-06T23:32:18.434Z,2.53
2022-09-06T23:34:47.846Z,2.80
2022-09-06T23:37:15.480Z,2.60
2022-09-06T23:39:43.202Z,2.37
2022-09-06T23:42:10.858Z,2.60
2022-09-06T23:44:38.525Z,2.10
2022-09-06T23:47:06.575Z,2.10
2022-09-06T23:49:34.248Z,2.00
2022-09-06T23:52:03.785Z,2.30
2022-09-06T23:54:31.421Z,1.97
2022-09-06T23:56:59.077Z,2.20
2022-09-06T23:59:26.743Z,2.67
